createdAt,value
2017-07-12T00:00:55.338Z,18.96
2017-07-12T00:03:23.755Z,18.94
2017-07-12T00:05:52.145Z,18.89
2017-07-12T00:08:20.559Z,18.94
2017-07-12T00:10:48.945Z,19.04
2017-07-12T00:13:17.570Z,19.16
2017-07-12T00:15:46.357Z,19.12
2017-07-12T00:18:15.153Z,18.99
2017-07-12T00:20:43.948Z,18.94
2017-07-12T00:23:12.732Z,18.82
2017-07-12T00:25:41.538Z,18.83
2017-07-12T00:28:09.933Z,18.73
2017-07-12T00:30:38.350Z,18.72
2017-07-12T00:33:06.737Z,18.86
2017-07-12T00:35:35.151Z,18.72
2017-07-12T00:38:03.555Z,18.66
2017-07-12T00:40:31.961Z,18.55
2017-07-12T00:43:00.588Z,18.47
2017-07-12T00:45:29.550Z,18.40
2017-07-12T00:47:57.938Z,18.38
2017-07-12T00:50:26.331Z,18.29
2017-07-12T00:52:55.142Z,18.29
2017-07-12T00:55:23.543Z,18.21
2017-07-12T00:57:51.954Z,18.12
2017-07-12T01:00:20.341Z,18.12
2017-07-12T01:02:48.759Z,18.13
2017-07-12T01:05:17.150Z,18.22
2017-07-12T01:07:46.371Z,18.00
2017-07-12T01:10:14.767Z,18.03
2017-07-12T01:12:43.593Z,17.97
2017-07-12T01:15:12.378Z,17.91
2017-07-12T01:17:41.174Z,17.84
2017-07-12T01:20:10.699Z,17.80
2017-07-12T01:22:40.193Z,17.71
2017-07-12T01:25:08.999Z,17.68
2017-07-12T01:27:37.403Z,17.63
2017-07-12T01:30:05.815Z,17.68
2017-07-12T01:32:34.209Z,17.65
2017-07-12T01:35:03.022Z,17.65
2017-07-12T01:37:31.423Z,17.58
2017-07-12T01:40:00.075Z,17.65
2017-07-12T01:42:29.094Z,17.49
2017-07-12T01:44:57.493Z,17.53
2017-07-12T01:47:25.902Z,17.50
2017-07-12T01:49:54.284Z,17.45
2017-07-12T01:52:22.703Z,17.36
2017-07-12T01:54:51.099Z,17.38
2017-07-12T01:57:19.519Z,17.36
2017-07-12T01:59:47.901Z,17.29
2017-07-12T02:02:16.332Z,17.28
2017-07-12T02:04:44.726Z,17.30
2017-07-12T02:07:13.139Z,17.24
2017-07-12T02:09:42.111Z,17.21
2017-07-12T02:12:10.747Z,17.23
2017-07-12T02:14:39.570Z,17.10
2017-07-12T02:17:08.235Z,17.15
2017-07-12T02:19:37.715Z,17.08
2017-07-12T02:22:06.118Z,17.09
2017-07-12T02:24:34.532Z,16.96
2017-07-12T02:27:02.931Z,16.98
2017-07-12T02:29:31.328Z,16.95
2017-07-12T02:31:59.721Z,16.93
2017-07-12T02:34:28.458Z,16.99
2017-07-12T02:36:56.854Z,16.95
2017-07-12T02:39:25.260Z,16.93
2017-07-12T02:41:54.080Z,16.97
2017-07-12T02:44:23.093Z,16.95
2017-07-12T02:46:51.507Z,16.83
2017-07-12T02:49:20.589Z,16.86
2017-07-12T02:51:49.002Z,16.86
2017-07-12T02:54:17.389Z,16.78
2017-07-12T02:56:45.793Z,16.83
2017-07-12T02:59:14.177Z,16.82
2017-07-12T03:01:43.049Z,16.91
2017-07-12T03:04:11.838Z,16.79
2017-07-12T03:06:40.629Z,16.95
2017-07-12T03:09:09.425Z,16.99
2017-07-12T03:11:38.218Z,17.04
2017-07-12T03:14:07.017Z,17.12
2017-07-12T03:16:36.198Z,16.95
2017-07-12T03:19:05.010Z,16.91
2017-07-12T03:21:34.603Z,17.07
2017-07-12T03:24:03.424Z,17.30
2017-07-12T03:26:31.813Z,17.32
2017-07-12T03:29:00.925Z,17.26
2017-07-12T03:31:29.325Z,17.24
2017-07-12T03:33:57.723Z,17.32
2017-07-12T03:36:26.604Z,17.30
2017-07-12T03:38:54.999Z,17.36
2017-07-12T03:41:23.806Z,17.29
2017-07-12T03:43:52.210Z,17.35
2017-07-12T03:46:20.613Z,17.52
2017-07-12T03:48:49.014Z,17.76
2017-07-12T03:51:17.420Z,17.89
2017-07-12T03:53:45.808Z,18.16
2017-07-12T03:56:14.304Z,18.33
2017-07-12T03:58:42.697Z,18.51
2017-07-12T04:01:11.927Z,18.67
2017-07-12T04:03:41.258Z,18.82
2017-07-12T04:06:09.649Z,19.67
2017-07-12T04:08:38.053Z,22.47
2017-07-12T04:11:06.459Z,24.04
2017-07-12T04:13:34.877Z,25.14
2017-07-12T04:16:03.662Z,25.21
2017-07-12T04:18:33.154Z,25.87
2017-07-12T04:21:02.650Z,26.10
2017-07-12T04:23:31.860Z,26.02
2017-07-12T04:26:00.649Z,26.91
2017-07-12T04:28:29.633Z,27.34
2017-07-12T04:30:58.344Z,28.17
2017-07-12T04:33:27.143Z,28.62
2017-07-12T04:35:56.324Z,28.86
2017-07-12T04:38:24.718Z,29.79
2017-07-12T04:40:53.124Z,30.03
2017-07-12T04:43:21.521Z,30.56
2017-07-12T04:45:49.929Z,31.64
2017-07-12T04:48:18.317Z,32.00
2017-07-12T04:50:47.135Z,32.28
2017-07-12T04:53:15.636Z,30.85
2017-07-12T04:55:44.307Z,26.96
2017-07-12T04:58:12.757Z,25.63
2017-07-12T05:00:41.545Z,25.87
2017-07-12T05:03:09.949Z,24.66
2017-07-12T05:05:38.351Z,24.14
2017-07-12T05:08:06.783Z,24.02
2017-07-12T05:10:35.180Z,23.69
2017-07-12T05:13:03.992Z,23.78
2017-07-12T05:15:32.390Z,24.24
2017-07-12T05:18:00.797Z,24.74
2017-07-12T05:20:29.189Z,24.50
2017-07-12T05:22:57.586Z,24.17
2017-07-12T05:25:26.590Z,24.00
2017-07-12T05:27:55.373Z,24.76
2017-07-12T05:30:24.186Z,24.75
2017-07-12T05:32:52.578Z,25.40
2017-07-12T05:35:21.009Z,25.74
2017-07-12T05:37:49.411Z,28.35
2017-07-12T05:40:17.834Z,26.52
2017-07-12T05:42:46.281Z,27.00
2017-07-12T05:45:14.655Z,30.11
2017-07-12T05:47:43.340Z,33.57
2017-07-12T05:50:11.733Z,33.32
2017-07-12T05:52:40.151Z,34.49
2017-07-12T05:55:09.050Z,36.48
2017-07-12T05:57:37.466Z,31.62
2017-07-12T06:00:06.246Z,29.78
2017-07-12T06:02:34.648Z,29.50
2017-07-12T06:05:03.036Z,29.63
2017-07-12T06:07:31.835Z,29.00
2017-07-12T06:10:00.220Z,27.00
2017-07-12T06:12:28.628Z,26.18
2017-07-12T06:14:57.035Z,25.62
2017-07-12T06:17:26.037Z,25.04
2017-07-12T06:19:54.437Z,24.29
2017-07-12T06:22:22.830Z,24.18
2017-07-12T06:24:51.278Z,24.21
2017-07-12T06:27:20.065Z,24.01
2017-07-12T06:29:49.280Z,23.85
2017-07-12T06:32:17.681Z,23.86
2017-07-12T06:34:46.086Z,24.03
2017-07-12T06:37:14.486Z,24.19
2017-07-12T06:39:42.888Z,24.33
2017-07-12T06:42:11.711Z,24.63
2017-07-12T06:44:40.107Z,24.81
2017-07-12T06:47:08.511Z,25.34
2017-07-12T06:49:37.159Z,25.24
2017-07-12T06:52:05.815Z,25.74
2017-07-12T06:54:34.206Z,26.26
2017-07-12T06:57:03.177Z,27.37
2017-07-12T06:59:31.965Z,28.58
2017-07-12T07:02:00.859Z,30.39
2017-07-12T07:04:29.642Z,28.95
2017-07-12T07:06:59.358Z,29.73
2017-07-12T07:09:28.141Z,32.46
2017-07-12T07:11:56.726Z,33.87
2017-07-12T07:14:25.501Z,33.95
2017-07-12T07:16:53.881Z,33.01
2017-07-12T07:19:22.307Z,34.66
2017-07-12T07:21:51.393Z,35.20
2017-07-12T07:24:20.071Z,35.08
2017-07-12T07:26:48.862Z,33.60
2017-07-12T07:29:17.958Z,31.35
2017-07-12T07:31:46.746Z,30.38
2017-07-12T07:34:16.419Z,31.48
2017-07-12T07:36:44.810Z,31.12
2017-07-12T07:39:13.515Z,33.08
2017-07-12T07:41:42.691Z,36.92
2017-07-12T07:44:11.795Z,33.92
2017-07-12T07:46:40.766Z,34.61
2017-07-12T07:49:09.520Z,36.51
2017-07-12T07:51:37.926Z,35.44
2017-07-12T07:54:06.305Z,36.46
2017-07-12T07:56:34.721Z,36.47
2017-07-12T07:59:03.105Z,36.10
2017-07-12T08:01:31.901Z,35.47
2017-07-12T08:04:00.688Z,34.95
2017-07-12T08:06:29.499Z,36.10
2017-07-12T08:08:57.880Z,37.05
2017-07-12T08:11:26.538Z,36.54
2017-07-12T08:13:55.320Z,35.58
2017-07-12T08:16:24.201Z,35.20
2017-07-12T08:18:53.651Z,33.85
2017-07-12T08:21:22.048Z,33.94
2017-07-12T08:23:50.534Z,34.49
2017-07-12T08:26:18.931Z,33.76
2017-07-12T08:28:47.347Z,36.20
2017-07-12T08:31:16.133Z,37.53
2017-07-12T08:33:45.494Z,36.10
2017-07-12T08:36:13.900Z,36.71
2017-07-12T08:38:42.511Z,38.72
2017-07-12T08:41:11.307Z,35.56
2017-07-12T08:43:40.102Z,34.34
2017-07-12T08:46:08.505Z,33.58
2017-07-12T08:48:36.893Z,35.78
2017-07-12T08:51:05.315Z,34.24
2017-07-12T08:53:34.225Z,34.79
2017-07-12T08:56:03.035Z,33.83
2017-07-12T08:58:32.317Z,31.18
2017-07-12T09:01:01.292Z,30.16
2017-07-12T09:03:29.723Z,29.78
2017-07-12T09:05:58.110Z,32.06
2017-07-12T09:08:26.510Z,31.53
2017-07-12T09:10:54.897Z,33.81
2017-07-12T09:13:23.301Z,33.73
2017-07-12T09:15:52.262Z,32.13
2017-07-12T09:18:20.676Z,30.98
2017-07-12T09:20:49.470Z,31.27
2017-07-12T09:23:18.105Z,31.05
2017-07-12T09:33:12.303Z,33.95
2017-07-12T09:35:40.689Z,33.17
2017-07-12T09:38:09.077Z,32.38
2017-07-12T09:40:37.473Z,30.79
2017-07-12T09:43:05.871Z,30.16
2017-07-12T09:45:34.602Z,29.43
2017-07-12T09:48:03.389Z,28.01
2017-07-12T09:50:31.796Z,27.51
2017-07-12T09:53:00.194Z,27.01
2017-07-12T09:55:28.922Z,26.54
2017-07-12T09:57:57.709Z,26.89
2017-07-12T10:00:26.114Z,26.89
2017-07-12T10:02:54.546Z,27.26
2017-07-12T10:05:23.578Z,27.30
2017-07-12T10:07:52.370Z,27.01
2017-07-12T10:10:21.157Z,26.61
2017-07-12T10:12:49.957Z,26.02
2017-07-12T10:15:18.341Z,25.87
2017-07-12T10:17:46.763Z,26.11
2017-07-12T10:20:15.160Z,26.55
2017-07-12T10:22:43.965Z,26.42
2017-07-12T10:25:12.367Z,26.38
2017-07-12T10:27:40.758Z,26.20
2017-07-12T10:30:09.171Z,26.32
2017-07-12T10:32:37.567Z,26.51
2017-07-12T10:35:05.964Z,26.55
2017-07-12T10:37:34.353Z,26.64
2017-07-12T10:40:02.763Z,26.21
2017-07-12T10:42:31.158Z,25.97
2017-07-12T10:45:01.048Z,25.34
2017-07-12T10:47:29.434Z,25.05
2017-07-12T10:49:57.847Z,24.68
2017-07-12T10:52:26.233Z,24.37
2017-07-12T10:54:54.792Z,23.91
2017-07-12T10:57:23.181Z,23.94
2017-07-12T10:59:51.571Z,23.99
2017-07-12T11:02:20.618Z,23.68
2017-07-12T11:04:49.419Z,23.53
2017-07-12T11:07:17.825Z,23.49
2017-07-12T11:09:46.466Z,23.86
2017-07-12T11:12:14.934Z,23.70
2017-07-12T11:14:43.317Z,23.93
2017-07-12T11:17:12.010Z,24.23
2017-07-12T11:19:40.798Z,24.24
2017-07-12T11:22:09.590Z,24.27
2017-07-12T11:24:38.475Z,24.31
2017-07-12T11:27:07.259Z,24.05
2017-07-12T11:29:35.675Z,23.91
2017-07-12T11:32:04.069Z,23.43
2017-07-12T11:34:32.481Z,23.09
2017-07-12T11:37:00.874Z,22.76
2017-07-12T11:39:29.280Z,22.50
2017-07-12T11:41:58.066Z,22.36
2017-07-12T11:44:26.634Z,22.23
2017-07-12T11:46:55.431Z,21.74
2017-07-12T11:49:23.853Z,21.21
2017-07-12T11:51:52.261Z,20.95
2017-07-12T11:54:20.650Z,21.28
2017-07-12T11:56:49.063Z,21.63
2017-07-12T11:59:17.845Z,21.72
2017-07-12T12:01:46.863Z,21.83
2017-07-12T12:04:15.301Z,22.03
2017-07-12T12:06:43.710Z,22.40
2017-07-12T12:09:12.506Z,22.45
2017-07-12T12:11:40.914Z,22.27
2017-07-12T12:14:09.318Z,22.21
2017-07-12T12:16:37.722Z,22.21
2017-07-12T12:19:06.528Z,22.52
2017-07-12T12:21:35.726Z,22.40
2017-07-12T12:24:04.527Z,22.30
2017-07-12T12:26:32.926Z,22.10
2017-07-12T12:29:01.353Z,22.06
2017-07-12T12:31:31.130Z,21.93
2017-07-12T12:33:59.774Z,22.06
2017-07-12T12:36:28.574Z,21.94
2017-07-12T12:38:57.263Z,21.94
2017-07-12T12:41:25.652Z,21.71
2017-07-12T12:43:54.404Z,21.57
2017-07-12T12:46:23.082Z,21.39
2017-07-12T12:48:52.165Z,21.19
2017-07-12T12:51:20.889Z,20.85
2017-07-12T12:53:49.687Z,20.91
2017-07-12T12:56:18.106Z,20.94
2017-07-12T12:58:46.851Z,20.74
2017-07-12T13:01:15.894Z,20.80
2017-07-12T13:03:44.285Z,20.76
2017-07-12T13:06:12.674Z,20.66
2017-07-12T13:08:41.628Z,20.47
2017-07-12T13:11:10.669Z,20.56
2017-07-12T13:13:39.261Z,20.62
2017-07-12T13:16:08.058Z,20.78
2017-07-12T13:18:36.845Z,20.64
2017-07-12T13:21:06.417Z,20.62
2017-07-12T13:23:34.775Z,20.77
2017-07-12T13:26:03.190Z,21.14
2017-07-12T13:28:31.577Z,21.33
2017-07-12T13:31:00.294Z,21.17
2017-07-12T13:33:28.978Z,21.18
2017-07-12T13:35:57.778Z,21.40
2017-07-12T13:38:26.171Z,21.67
2017-07-12T13:40:54.831Z,21.61
2017-07-12T13:43:23.647Z,21.26
2017-07-12T13:45:52.150Z,21.28
2017-07-12T13:48:21.130Z,20.98
2017-07-12T13:50:49.787Z,20.83
2017-07-12T13:53:19.280Z,20.98
2017-07-12T13:55:48.066Z,21.21
2017-07-12T13:58:17.679Z,21.33
2017-07-12T14:00:46.465Z,21.57
2017-07-12T14:03:15.263Z,21.72
2017-07-12T14:05:44.075Z,22.03
2017-07-12T14:08:12.478Z,21.83
2017-07-12T14:10:40.895Z,22.22
2017-07-12T14:13:09.314Z,21.85
2017-07-12T14:15:37.719Z,21.87
2017-07-12T14:18:06.122Z,22.07
2017-07-12T14:20:34.846Z,22.20
2017-07-12T14:23:03.233Z,22.26
2017-07-12T14:25:31.697Z,22.20
2017-07-12T14:28:00.490Z,21.94
2017-07-12T14:30:28.934Z,21.99
2017-07-12T14:32:57.318Z,21.50
2017-07-12T14:35:25.941Z,21.53
2017-07-12T14:37:55.041Z,21.31
2017-07-12T14:40:24.140Z,20.89
2017-07-12T14:42:52.551Z,20.77
2017-07-12T14:45:20.951Z,20.78
2017-07-12T14:47:49.367Z,20.71
2017-07-12T14:50:18.160Z,20.20
2017-07-12T14:52:47.267Z,20.35
2017-07-12T14:55:16.062Z,20.43
2017-07-12T14:57:44.738Z,20.34
2017-07-12T15:00:14.064Z,20.35
2017-07-12T15:02:42.610Z,20.22
2017-07-12T15:05:11.407Z,20.08
2017-07-12T15:07:40.388Z,20.01
2017-07-12T15:10:10.458Z,19.97
2017-07-12T15:12:38.845Z,19.96
2017-07-12T15:15:07.259Z,19.96
2017-07-12T15:17:35.975Z,20.03
2017-07-12T15:20:04.932Z,19.91
2017-07-12T15:22:33.316Z,19.98
2017-07-12T15:25:03.166Z,19.98
2017-07-12T15:27:32.007Z,19.70
2017-07-12T15:30:00.717Z,19.60
2017-07-12T15:32:29.108Z,19.57
2017-07-12T15:34:57.911Z,19.52
2017-07-12T15:37:26.723Z,19.48
2017-07-12T15:39:56.045Z,19.37
2017-07-12T15:42:24.455Z,19.31
2017-07-12T15:44:52.888Z,19.14
2017-07-12T15:47:21.293Z,19.00
2017-07-12T15:49:49.692Z,18.80
2017-07-12T15:52:18.418Z,-144.51
2017-07-12T15:54:46.830Z,-144.51
2017-07-12T15:57:15.536Z,-144.51
2017-07-12T15:59:44.722Z,-144.51
2017-07-12T16:02:13.140Z,-144.51
2017-07-12T16:04:41.571Z,-144.51
2017-07-12T16:07:09.986Z,-144.51
2017-07-12T16:09:38.411Z,-144.51
2017-07-12T16:12:06.828Z,-144.51
2017-07-12T16:14:35.269Z,-144.51
2017-07-12T16:17:03.911Z,-144.51
2017-07-12T16:19:32.352Z,-144.51
2017-07-12T16:22:00.767Z,-144.51
2017-07-12T16:24:29.391Z,-144.51
2017-07-12T16:26:57.799Z,-144.51
2017-07-12T16:29:26.469Z,-144.51
2017-07-12T16:31:54.908Z,-144.51
2017-07-12T16:34:23.317Z,-144.51
2017-07-12T16:36:52.152Z,-144.51
2017-07-12T16:39:20.569Z,-144.51
2017-07-12T16:41:50.822Z,-144.51
2017-07-12T16:44:19.633Z,-144.51
2017-07-12T16:46:48.386Z,-144.51
2017-07-12T16:49:17.273Z,-144.51
2017-07-12T16:51:46.083Z,-144.51
2017-07-12T16:54:14.519Z,-144.51
2017-07-12T16:56:42.935Z,-144.51
2017-07-12T16:59:12.478Z,-144.51
2017-07-12T17:01:40.877Z,-144.51
2017-07-12T17:04:09.299Z,-144.51
2017-07-12T17:06:38.114Z,-144.51
2017-07-12T17:09:06.615Z,-144.51
2017-07-12T17:11:35.866Z,-144.51
2017-07-12T17:14:04.890Z,18.11
2017-07-12T17:16:33.286Z,18.25
2017-07-12T17:19:01.670Z,18.25
2017-07-12T17:21:30.083Z,18.10
2017-07-12T17:23:58.479Z,18.16
2017-07-12T17:26:27.287Z,18.18
2017-07-12T17:28:56.520Z,18.14
2017-07-12T17:31:25.174Z,18.18
2017-07-12T17:33:53.482Z,18.17
2017-07-12T17:36:21.872Z,18.13
2017-07-12T17:38:50.283Z,18.15
2017-07-12T17:41:18.671Z,18.15
2017-07-12T17:43:47.700Z,18.06
2017-07-12T17:46:16.095Z,18.06
2017-07-12T17:48:44.855Z,18.04
2017-07-12T17:51:13.246Z,18.13
2017-07-12T17:53:41.650Z,18.31
2017-07-12T17:56:10.049Z,18.05
2017-07-12T17:58:38.443Z,18.13
2017-07-12T18:01:06.856Z,18.08
2017-07-12T18:03:35.250Z,18.22
2017-07-12T18:06:03.654Z,18.11
2017-07-12T18:08:33.048Z,18.07
2017-07-12T18:11:01.445Z,18.00
2017-07-12T18:13:29.830Z,18.01
2017-07-12T18:15:58.449Z,18.09
2017-07-12T18:18:27.243Z,18.10
2017-07-12T18:20:56.062Z,17.96
2017-07-12T18:23:24.584Z,17.88
2017-07-12T18:25:53.312Z,17.97
2017-07-12T18:28:22.119Z,18.04
2017-07-12T18:30:50.566Z,17.95
2017-07-12T18:33:19.747Z,17.98
2017-07-12T18:35:48.139Z,17.92
2017-07-12T18:38:16.542Z,18.09
2017-07-12T18:40:45.336Z,18.03
2017-07-12T18:46:11.285Z,17.97
2017-07-12T18:48:39.664Z,17.93
2017-07-12T18:51:08.066Z,18.04
2017-07-12T18:53:36.441Z,17.98
2017-07-12T18:56:04.972Z,17.92
2017-07-12T18:58:33.352Z,18.01
2017-07-12T19:01:01.739Z,18.03
2017-07-12T19:03:30.132Z,17.96
2017-07-12T19:05:58.907Z,17.94
2017-07-12T19:08:27.701Z,18.00
2017-07-12T19:10:56.486Z,18.06
2017-07-12T19:13:25.277Z,18.05
2017-07-12T19:15:53.652Z,17.93
2017-07-12T19:18:22.059Z,18.20
2017-07-12T19:20:50.512Z,18.09
2017-07-12T19:23:19.078Z,17.75
2017-07-12T19:25:47.462Z,17.72
2017-07-12T19:28:15.861Z,17.58
2017-07-12T19:30:44.264Z,17.56
2017-07-12T19:33:12.650Z,17.44
2017-07-12T19:35:41.505Z,17.37
2017-07-12T19:38:09.943Z,17.43
2017-07-12T19:40:38.488Z,17.34
2017-07-12T19:43:07.271Z,17.41
2017-07-12T19:45:36.058Z,17.46
2017-07-12T19:48:04.867Z,17.38
2017-07-12T19:50:33.253Z,17.39
2017-07-12T19:53:01.740Z,17.36
2017-07-12T19:55:30.193Z,17.32
2017-07-12T19:57:58.993Z,17.36
2017-07-12T20:00:27.783Z,17.38
2017-07-12T20:02:56.766Z,17.40
2017-07-12T20:05:25.159Z,17.28
2017-07-12T20:07:53.945Z,17.23
2017-07-12T20:10:22.755Z,17.14
2017-07-12T20:12:51.421Z,17.10
2017-07-12T20:15:20.213Z,17.11
2017-07-12T20:17:48.998Z,17.00
2017-07-12T20:20:17.820Z,17.07
2017-07-12T20:22:46.204Z,17.15
2017-07-12T20:25:14.841Z,17.06
2017-07-12T20:27:43.621Z,17.04
2017-07-12T20:30:12.013Z,17.02
2017-07-12T20:32:40.808Z,17.06
2017-07-12T20:35:09.589Z,17.06
2017-07-12T20:37:38.381Z,17.03
2017-07-12T20:40:07.156Z,17.01
2017-07-12T20:42:35.552Z,16.97
2017-07-12T20:45:04.327Z,16.93
2017-07-12T20:47:32.730Z,16.97
2017-07-12T20:50:01.517Z,16.95
2017-07-12T20:52:30.317Z,16.96
2017-07-12T20:54:58.696Z,16.82
2017-07-12T20:57:27.368Z,16.88
2017-07-12T20:59:56.519Z,16.84
2017-07-12T21:02:24.887Z,16.79
2017-07-12T21:04:53.293Z,16.75
2017-07-12T21:09:59.507Z,16.66
2017-07-12T21:12:28.288Z,16.50
2017-07-12T21:14:56.664Z,16.56
2017-07-12T21:17:25.128Z,16.36
2017-07-12T21:19:53.517Z,16.28
2017-07-12T21:22:21.916Z,16.22
2017-07-12T21:24:50.695Z,16.06
2017-07-12T21:27:19.286Z,15.92
2017-07-12T21:29:48.078Z,15.89
2017-07-12T21:32:16.482Z,15.70
2017-07-12T21:34:44.890Z,15.70
2017-07-12T21:37:13.612Z,15.57
2017-07-12T21:39:42.016Z,15.48
2017-07-12T21:42:10.801Z,15.40
2017-07-12T21:44:39.902Z,15.44
2017-07-12T21:47:08.675Z,15.32
2017-07-12T21:49:37.223Z,15.17
2017-07-12T21:52:05.609Z,15.07
2017-07-12T21:54:57.667Z,15.19
2017-07-12T21:57:49.496Z,15.17
2017-07-12T22:00:41.539Z,15.08
2017-07-12T22:03:33.834Z,15.21
2017-07-12T22:06:25.719Z,15.25
2017-07-12T22:09:18.057Z,15.20
2017-07-12T22:12:10.388Z,15.19
2017-07-12T22:15:02.229Z,15.17
2017-07-12T22:17:54.354Z,15.25
2017-07-12T22:20:46.168Z,15.23
2017-07-12T22:23:38.086Z,15.13
2017-07-12T22:26:30.072Z,15.14
2017-07-12T22:29:22.409Z,15.30
2017-07-12T22:32:14.861Z,15.29
2017-07-12T22:35:07.068Z,15.43
2017-07-12T22:37:41.055Z,15.41
2017-07-12T22:40:15.093Z,15.51
2017-07-12T22:42:48.792Z,15.41
2017-07-12T22:45:17.347Z,15.51
2017-07-12T22:47:45.986Z,15.47
2017-07-12T22:50:14.794Z,15.66
2017-07-12T22:52:43.217Z,15.63
2017-07-12T22:55:11.601Z,15.64
2017-07-12T22:57:40.218Z,15.75
2017-07-12T23:00:09.000Z,15.77
2017-07-12T23:02:37.778Z,15.62
2017-07-12T23:05:06.176Z,15.51
2017-07-12T23:07:34.951Z,15.65
2017-07-12T23:10:03.361Z,15.71
2017-07-12T23:12:31.769Z,15.71
2017-07-12T23:15:00.173Z,15.78
2017-07-12T23:17:28.560Z,15.70
2017-07-12T23:19:57.276Z,15.78
2017-07-12T23:22:26.052Z,15.84
2017-07-12T23:24:55.159Z,15.73
2017-07-12T23:27:23.946Z,15.62
2017-07-12T23:29:53.043Z,15.75
2017-07-12T23:32:21.843Z,15.67
2017-07-12T23:34:50.233Z,15.69
2017-07-12T23:37:18.646Z,15.73
2017-07-12T23:39:47.041Z,15.63
2017-07-12T23:42:15.439Z,15.66
2017-07-12T23:44:43.841Z,15.60
2017-07-12T23:47:12.646Z,15.53
2017-07-12T23:49:41.318Z,15.59
2017-07-12T23:52:10.119Z,15.51
